sensor_id;sensor_type;location;lat;lon;timestamp;temperature;humidity
17154;DHT22;8692;52.164;7.558;2022-12-16T00:00:18;-5.00;99.90
17154;DHT22;8692;52.164;7.558;2022-12-16T00:02:49;-5.00;99.90
17154;DHT22;8692;52.164;7.558;2022-12-16T00:05:20;-5.00;99.90
17154;DHT22;8692;52.164;7.558;2022-12-16T00:07:48;-4.90;99.90
17154;DHT22;8692;52.164;7.558;2022-12-16T00:10:18;-4.90;99.90
17154;DHT22;8692;52.164;7.558;2022-12-16T00:12:47;-4.90;99.90
17154;DHT22;8692;52.164;7.558;2022-12-16T00:15:17;-4.80;99.90
17154;DHT22;8692;52.164;7.558;2022-12-16T00:17:45;-4.80;99.90
17154;DHT22;8692;52.164;7.558;2022-12-16T00:20:14;-4.80;99.90
17154;DHT22;8692;52.164;7.558;2022-12-16T00:22:42;-4.70;99.90
17154;DHT22;8692;52.164;7.558;2022-12-16T00:25:12;-4.70;99.90
17154;DHT22;8692;52.164;7.558;2022-12-16T00:27:44;-4.70;99.90
17154;DHT22;8692;52.164;7.558;2022-12-16T00:30:13;-4.60;99.90
17154;DHT22;8692;52.164;7.558;2022-12-16T00:32:41;-4.60;99.90
17154;DHT22;8692;52.164;7.558;2022-12-16T00:35:09;-4.50;99.90
17154;DHT22;8692;52.164;7.558;2022-12-16T00:37:37;-4.50;99.90
17154;DHT22;8692;52.164;7.558;2022-12-16T00:40:06;-4.50;99.90
17154;DHT22;8692;52.164;7.558;2022-12-16T00:42:36;-4.50;99.90
17154;DHT22;8692;52.164;7.558;2022-12-16T00:45:07;-4.40;99.90
17154;DHT22;8692;52.164;7.558;2022-12-16T00:47:35;-4.40;99.90
17154;DHT22;8692;52.164;7.558;2022-12-16T00:50:09;-4.30;99.90
17154;DHT22;8692;52.164;7.558;2022-12-16T00:52:38;-4.30;99.90
17154;DHT22;8692;52.164;7.558;2022-12-16T00:55:07;-4.30;99.90
17154;DHT22;8692;52.164;7.558;2022-12-16T00:57:35;-4.30;99.90
17154;DHT22;8692;52.164;7.558;2022-12-16T01:00:06;-4.30;99.90
17154;DHT22;8692;52.164;7.558;2022-12-16T01:02:39;-4.20;99.90
17154;DHT22;8692;52.164;7.558;2022-12-16T01:05:11;-4.20;99.90
17154;DHT22;8692;52.164;7.558;2022-12-16T01:07:40;-4.20;99.90
17154;DHT22;8692;52.164;7.558;2022-12-16T01:10:09;-4.10;99.90
17154;DHT22;8692;52.164;7.558;2022-12-16T01:12:40;-4.10;99.90
17154;DHT22;8692;52.164;7.558;2022-12-16T01:15:11;-4.00;99.90
17154;DHT22;8692;52.164;7.558;2022-12-16T01:17:41;-4.00;99.90
17154;DHT22;8692;52.164;7.558;2022-12-16T01:20:11;-4.00;99.90
17154;DHT22;8692;52.164;7.558;2022-12-16T01:22:40;-4.00;99.90
17154;DHT22;8692;52.164;7.558;2022-12-16T01:25:11;-3.90;99.90
17154;DHT22;8692;52.164;7.558;2022-12-16T01:27:39;-3.90;99.90
17154;DHT22;8692;52.164;7.558;2022-12-16T01:30:11;-3.90;99.90
17154;DHT22;8692;52.164;7.558;2022-12-16T01:32:42;-3.90;99.90
17154;DHT22;8692;52.164;7.558;2022-12-16T01:35:10;-3.90;99.90
17154;DHT22;8692;52.164;7.558;2022-12-16T01:37:59;-3.80;99.90
17154;DHT22;8692;52.164;7.558;2022-12-16T01:40:27;-3.80;99.90
17154;DHT22;8692;52.164;7.558;2022-12-16T01:42:56;-3.80;99.90
17154;DHT22;8692;52.164;7.558;2022-12-16T01:45:32;-3.70;99.90
17154;DHT22;8692;52.164;7.558;2022-12-16T01:48:10;-3.70;99.90
17154;DHT22;8692;52.164;7.558;2022-12-16T01:50:43;-3.70;99.90
17154;DHT22;8692;52.164;7.558;2022-12-16T01:53:12;-3.70;99.90
17154;DHT22;8692;52.164;7.558;2022-12-16T01:55:44;-3.70;99.90
17154;DHT22;8692;52.164;7.558;2022-12-16T01:58:18;-3.70;99.90
17154;DHT22;8692;52.164;7.558;2022-12-16T02:00:50;-3.70;99.90
17154;DHT22;8692;52.164;7.558;2022-12-16T02:03:20;-3.70;99.90
17154;DHT22;8692;52.164;7.558;2022-12-16T02:05:49;-3.60;99.90
17154;DHT22;8692;52.164;7.558;2022-12-16T02:08:19;-3.60;99.90
17154;DHT22;8692;52.164;7.558;2022-12-16T02:10:58;-3.60;99.90
17154;DHT22;8692;52.164;7.558;2022-12-16T02:13:39;-3.60;99.90
17154;DHT22;8692;52.164;7.558;2022-12-16T02:16:18;-3.50;99.90
17154;DHT22;8692;52.164;7.558;2022-12-16T02:18:52;-3.60;99.90
17154;DHT22;8692;52.164;7.558;2022-12-16T02:21:43;-3.60;99.90
17154;DHT22;8692;52.164;7.558;2022-12-16T02:25:02;-3.60;99.90
17154;DHT22;8692;52.164;7.558;2022-12-16T02:27:44;-3.60;99.90
17154;DHT22;8692;52.164;7.558;2022-12-16T02:30:38;-3.60;99.90
17154;DHT22;8692;52.164;7.558;2022-12-16T02:33:17;-3.60;99.90
17154;DHT22;8692;52.164;7.558;2022-12-16T02:35:54;-3.60;99.90
17154;DHT22;8692;52.164;7.558;2022-12-16T02:38:29;-3.60;99.90
17154;DHT22;8692;52.164;7.558;2022-12-16T02:41:02;-3.60;99.90
17154;DHT22;8692;52.164;7.558;2022-12-16T02:43:49;-3.60;99.90
17154;DHT22;8692;52.164;7.558;2022-12-16T02:46:26;-3.60;99.90
17154;DHT22;8692;52.164;7.558;2022-12-16T02:48:55;-3.60;99.90
17154;DHT22;8692;52.164;7.558;2022-12-16T02:51:25;-3.60;99.90
17154;DHT22;8692;52.164;7.558;2022-12-16T02:53:54;-3.60;99.90
17154;DHT22;8692;52.164;7.558;2022-12-16T02:56:29;-3.60;99.90
17154;DHT22;8692;52.164;7.558;2022-12-16T02:59:14;-3.60;99.90
17154;DHT22;8692;52.164;7.558;2022-12-16T03:01:51;-3.70;99.90
17154;DHT22;8692;52.164;7.558;2022-12-16T03:04:26;-3.70;99.90
17154;DHT22;8692;52.164;7.558;2022-12-16T03:06:59;-3.70;99.90
17154;DHT22;8692;52.164;7.558;2022-12-16T03:09:31;-3.70;99.90
17154;DHT22;8692;52.164;7.558;2022-12-16T03:12:03;-3.70;99.90
17154;DHT22;8692;52.164;7.558;2022-12-16T03:14:34;-3.80;99.90
17154;DHT22;8692;52.164;7.558;2022-12-16T03:17:08;-3.80;99.90
17154;DHT22;8692;52.164;7.558;2022-12-16T03:19:42;-3.80;99.90
17154;DHT22;8692;52.164;7.558;2022-12-16T03:22:15;-3.80;99.90
17154;DHT22;8692;52.164;7.558;2022-12-16T03:24:45;-3.90;99.90
17154;DHT22;8692;52.164;7.558;2022-12-16T03:27:19;-3.90;99.90
17154;DHT22;8692;52.164;7.558;2022-12-16T03:29:52;-4.00;99.90
17154;DHT22;8692;52.164;7.558;2022-12-16T03:32:28;-4.00;99.90
17154;DHT22;8692;52.164;7.558;2022-12-16T03:35:00;-4.00;99.90
17154;DHT22;8692;52.164;7.558;2022-12-16T03:37:31;-4.00;99.90
17154;DHT22;8692;52.164;7.558;2022-12-16T03:40:03;-4.10;99.90
17154;DHT22;8692;52.164;7.558;2022-12-16T03:42:32;-4.10;99.90
17154;DHT22;8692;52.164;7.558;2022-12-16T03:45:04;-4.10;99.90
17154;DHT22;8692;52.164;7.558;2022-12-16T03:47:36;-4.10;99.90
17154;DHT22;8692;52.164;7.558;2022-12-16T03:50:05;-4.20;99.90
17154;DHT22;8692;52.164;7.558;2022-12-16T03:52:34;-4.20;99.90
17154;DHT22;8692;52.164;7.558;2022-12-16T03:55:03;-4.20;99.90
17154;DHT22;8692;52.164;7.558;2022-12-16T03:57:31;-4.30;99.90
17154;DHT22;8692;52.164;7.558;2022-12-16T04:00:02;-4.30;99.90
17154;DHT22;8692;52.164;7.558;2022-12-16T04:02:38;-4.30;99.90
17154;DHT22;8692;52.164;7.558;2022-12-16T04:05:08;-4.40;99.90
17154;DHT22;8692;52.164;7.558;2022-12-16T04:07:38;-4.40;99.90
17154;DHT22;8692;52.164;7.558;2022-12-16T04:10:09;-4.40;99.90
17154;DHT22;8692;52.164;7.558;2022-12-16T04:12:39;-4.40;99.90
17154;DHT22;8692;52.164;7.558;2022-12-16T04:15:25;-4.50;99.90
17154;DHT22;8692;52.164;7.558;2022-12-16T04:18:15;-4.50;99.90
17154;DHT22;8692;52.164;7.558;2022-12-16T04:21:04;-4.50;99.90
17154;DHT22;8692;52.164;7.558;2022-12-16T04:24:01;-4.60;99.90
17154;DHT22;8692;52.164;7.558;2022-12-16T04:26:52;-4.60;99.90
17154;DHT22;8692;52.164;7.558;2022-12-16T04:29:41;-4.60;99.90
17154;DHT22;8692;52.164;7.558;2022-12-16T04:32:24;-4.70;99.90
17154;DHT22;8692;52.164;7.558;2022-12-16T04:34:56;-4.70;99.90
17154;DHT22;8692;52.164;7.558;2022-12-16T04:37:38;-4.70;99.90
17154;DHT22;8692;52.164;7.558;2022-12-16T04:40:24;-4.70;99.90
17154;DHT22;8692;52.164;7.558;2022-12-16T04:43:12;-4.80;99.90
17154;DHT22;8692;52.164;7.558;2022-12-16T04:45:58;-4.80;99.90
17154;DHT22;8692;52.164;7.558;2022-12-16T04:48:45;-4.80;99.90
17154;DHT22;8692;52.164;7.558;2022-12-16T04:51:32;-4.80;99.90
17154;DHT22;8692;52.164;7.558;2022-12-16T04:54:19;-4.90;99.90
17154;DHT22;8692;52.164;7.558;2022-12-16T04:57:04;-4.90;99.90
17154;DHT22;8692;52.164;7.558;2022-12-16T04:59:51;-4.90;99.90
17154;DHT22;8692;52.164;7.558;2022-12-16T05:02:37;-4.90;99.90
17154;DHT22;8692;52.164;7.558;2022-12-16T05:05:23;-4.90;99.90
17154;DHT22;8692;52.164;7.558;2022-12-16T05:08:10;-5.00;99.90
17154;DHT22;8692;52.164;7.558;2022-12-16T05:10:56;-4.90;99.90
17154;DHT22;8692;52.164;7.558;2022-12-16T05:13:44;-5.00;99.90
17154;DHT22;8692;52.164;7.558;2022-12-16T05:16:31;-5.00;99.90
17154;DHT22;8692;52.164;7.558;2022-12-16T05:19:17;-5.00;99.90
17154;DHT22;8692;52.164;7.558;2022-12-16T05:22:11;-5.00;99.90
17154;DHT22;8692;52.164;7.558;2022-12-16T05:24:58;-5.10;99.90
17154;DHT22;8692;52.164;7.558;2022-12-16T05:27:49;-5.10;99.90
17154;DHT22;8692;52.164;7.558;2022-12-16T05:30:35;-5.10;99.90
17154;DHT22;8692;52.164;7.558;2022-12-16T05:33:23;-5.10;99.90
17154;DHT22;8692;52.164;7.558;2022-12-16T05:36:09;-5.20;99.90
17154;DHT22;8692;52.164;7.558;2022-12-16T05:38:57;-5.20;99.90
17154;DHT22;8692;52.164;7.558;2022-12-16T05:41:44;-5.20;99.90
17154;DHT22;8692;52.164;7.558;2022-12-16T05:44:30;-5.20;99.90
17154;DHT22;8692;52.164;7.558;2022-12-16T05:47:16;-5.20;99.90
17154;DHT22;8692;52.164;7.558;2022-12-16T05:50:04;-5.20;99.90
17154;DHT22;8692;52.164;7.558;2022-12-16T05:52:57;-5.20;99.90
17154;DHT22;8692;52.164;7.558;2022-12-16T05:55:43;-5.20;99.90
17154;DHT22;8692;52.164;7.558;2022-12-16T05:58:30;-5.20;99.90
17154;DHT22;8692;52.164;7.558;2022-12-16T06:01:16;-5.20;99.90
17154;DHT22;8692;52.164;7.558;2022-12-16T06:04:05;-5.20;99.90
17154;DHT22;8692;52.164;7.558;2022-12-16T06:06:51;-5.30;99.90
17154;DHT22;8692;52.164;7.558;2022-12-16T06:09:39;-5.30;99.90
17154;DHT22;8692;52.164;7.558;2022-12-16T06:12:25;-5.20;99.90
17154;DHT22;8692;52.164;7.558;2022-12-16T06:15:14;-5.30;99.90
17154;DHT22;8692;52.164;7.558;2022-12-16T06:18:00;-5.30;99.90
17154;DHT22;8692;52.164;7.558;2022-12-16T06:20:45;-5.20;99.90
17154;DHT22;8692;52.164;7.558;2022-12-16T06:23:31;-5.20;99.90
17154;DHT22;8692;52.164;7.558;2022-12-16T06:26:16;-5.30;99.90
17154;DHT22;8692;52.164;7.558;2022-12-16T06:29:01;-5.30;99.90
17154;DHT22;8692;52.164;7.558;2022-12-16T06:31:48;-5.20;99.90
17154;DHT22;8692;52.164;7.558;2022-12-16T06:34:33;-5.20;99.90
17154;DHT22;8692;52.164;7.558;2022-12-16T06:37:21;-5.20;99.90
17154;DHT22;8692;52.164;7.558;2022-12-16T06:40:08;-5.20;99.90
17154;DHT22;8692;52.164;7.558;2022-12-16T06:42:55;-5.20;99.90
17154;DHT22;8692;52.164;7.558;2022-12-16T06:45:40;-5.20;99.90
17154;DHT22;8692;52.164;7.558;2022-12-16T06:48:29;-5.20;99.90
17154;DHT22;8692;52.164;7.558;2022-12-16T06:51:15;-5.20;99.90
17154;DHT22;8692;52.164;7.558;2022-12-16T06:54:01;-5.20;99.90
17154;DHT22;8692;52.164;7.558;2022-12-16T06:56:46;-5.20;99.90
17154;DHT22;8692;52.164;7.558;2022-12-16T06:59:34;-5.20;99.90
17154;DHT22;8692;52.164;7.558;2022-12-16T07:02:20;-5.20;99.90
17154;DHT22;8692;52.164;7.558;2022-12-16T07:05:08;-5.20;99.90
17154;DHT22;8692;52.164;7.558;2022-12-16T07:07:53;-5.20;99.90
17154;DHT22;8692;52.164;7.558;2022-12-16T07:10:39;-5.10;99.90
17154;DHT22;8692;52.164;7.558;2022-12-16T07:13:41;-5.10;99.90
17154;DHT22;8692;52.164;7.558;2022-12-16T07:16:26;-5.10;99.90
17154;DHT22;8692;52.164;7.558;2022-12-16T07:19:12;-5.10;99.90
17154;DHT22;8692;52.164;7.558;2022-12-16T07:21:59;-5.10;99.90
17154;DHT22;8692;52.164;7.558;2022-12-16T07:24:45;-5.00;99.90
17154;DHT22;8692;52.164;7.558;2022-12-16T07:27:33;-5.00;99.90
17154;DHT22;8692;52.164;7.558;2022-12-16T07:30:19;-5.00;99.90
17154;DHT22;8692;52.164;7.558;2022-12-16T07:33:06;-5.00;99.90
17154;DHT22;8692;52.164;7.558;2022-12-16T07:35:52;-4.90;99.90
17154;DHT22;8692;52.164;7.558;2022-12-16T07:38:39;-4.90;99.90
17154;DHT22;8692;52.164;7.558;2022-12-16T07:41:24;-4.90;99.90
17154;DHT22;8692;52.164;7.558;2022-12-16T07:44:10;-4.90;99.90
17154;DHT22;8692;52.164;7.558;2022-12-16T07:46:55;-4.90;99.90
17154;DHT22;8692;52.164;7.558;2022-12-16T07:49:41;-4.80;99.90
17154;DHT22;8692;52.164;7.558;2022-12-16T07:52:29;-4.80;99.90
17154;DHT22;8692;52.164;7.558;2022-12-16T07:55:16;-4.80;99.90
17154;DHT22;8692;52.164;7.558;2022-12-16T07:58:02;-4.70;99.90
17154;DHT22;8692;52.164;7.558;2022-12-16T08:00:49;-4.70;99.90
17154;DHT22;8692;52.164;7.558;2022-12-16T08:03:38;-4.70;99.90
17154;DHT22;8692;52.164;7.558;2022-12-16T08:06:23;-4.60;99.90
17154;DHT22;8692;52.164;7.558;2022-12-16T08:09:11;-4.60;99.90
17154;DHT22;8692;52.164;7.558;2022-12-16T08:12:00;-4.60;99.90
17154;DHT22;8692;52.164;7.558;2022-12-16T08:14:48;-4.50;99.90
17154;DHT22;8692;52.164;7.558;2022-12-16T08:17:34;-4.50;99.90
17154;DHT22;8692;52.164;7.558;2022-12-16T08:20:21;-4.40;99.90
17154;DHT22;8692;52.164;7.558;2022-12-16T08:23:06;-4.40;99.90
17154;DHT22;8692;52.164;7.558;2022-12-16T08:25:52;-4.40;99.90
17154;DHT22;8692;52.164;7.558;2022-12-16T08:28:41;-4.40;99.90
17154;DHT22;8692;52.164;7.558;2022-12-16T08:31:47;-4.30;99.90
17154;DHT22;8692;52.164;7.558;2022-12-16T08:34:33;-4.30;99.90
17154;DHT22;8692;52.164;7.558;2022-12-16T08:37:18;-4.20;99.90
17154;DHT22;8692;52.164;7.558;2022-12-16T08:40:12;-4.20;99.90
17154;DHT22;8692;52.164;7.558;2022-12-16T08:43:04;-4.10;99.90
17154;DHT22;8692;52.164;7.558;2022-12-16T08:45:52;-4.10;99.90
17154;DHT22;8692;52.164;7.558;2022-12-16T08:48:38;-4.00;99.90
17154;DHT22;8692;52.164;7.558;2022-12-16T08:51:27;-4.00;99.90
17154;DHT22;8692;52.164;7.558;2022-12-16T08:54:12;-3.90;99.90
17154;DHT22;8692;52.164;7.558;2022-12-16T08:57:00;-3.90;99.90
17154;DHT22;8692;52.164;7.558;2022-12-16T08:59:46;-3.80;99.90
17154;DHT22;8692;52.164;7.558;2022-12-16T09:02:35;-3.80;99.90
17154;DHT22;8692;52.164;7.558;2022-12-16T09:05:22;-3.80;99.90
17154;DHT22;8692;52.164;7.558;2022-12-16T09:08:08;-3.70;99.90
17154;DHT22;8692;52.164;7.558;2022-12-16T09:10:59;-3.70;99.90
17154;DHT22;8692;52.164;7.558;2022-12-16T09:13:45;-3.60;99.90
17154;DHT22;8692;52.164;7.558;2022-12-16T09:16:31;-3.60;99.90
17154;DHT22;8692;52.164;7.558;2022-12-16T09:19:18;-3.60;99.90
17154;DHT22;8692;52.164;7.558;2022-12-16T09:22:06;-3.50;99.90
17154;DHT22;8692;52.164;7.558;2022-12-16T09:24:51;-3.40;99.90
17154;DHT22;8692;52.164;7.558;2022-12-16T09:27:37;-3.40;99.90
17154;DHT22;8692;52.164;7.558;2022-12-16T09:30:23;-3.30;99.90
17154;DHT22;8692;52.164;7.558;2022-12-16T09:33:09;-3.20;99.90
17154;DHT22;8692;52.164;7.558;2022-12-16T09:35:56;-3.10;99.90
17154;DHT22;8692;52.164;7.558;2022-12-16T09:38:41;-3.10;99.90
17154;DHT22;8692;52.164;7.558;2022-12-16T09:41:39;-3.00;99.90
17154;DHT22;8692;52.164;7.558;2022-12-16T09:44:33;-3.00;99.90
17154;DHT22;8692;52.164;7.558;2022-12-16T09:47:29;-2.90;99.90
17154;DHT22;8692;52.164;7.558;2022-12-16T09:50:19;-2.90;99.90
17154;DHT22;8692;52.164;7.558;2022-12-16T09:53:10;-2.80;99.90
17154;DHT22;8692;52.164;7.558;2022-12-16T09:55:57;-2.80;99.90
17154;DHT22;8692;52.164;7.558;2022-12-16T09:58:49;-2.70;99.90
17154;DHT22;8692;52.164;7.558;2022-12-16T10:01:38;-2.70;99.90
17154;DHT22;8692;52.164;7.558;2022-12-16T10:04:25;-2.60;99.90
17154;DHT22;8692;52.164;7.558;2022-12-16T10:07:15;-2.60;99.90
17154;DHT22;8692;52.164;7.558;2022-12-16T10:10:13;-2.60;99.90
17154;DHT22;8692;52.164;7.558;2022-12-16T10:13:07;-2.50;99.90
17154;DHT22;8692;52.164;7.558;2022-12-16T10:15:59;-2.50;99.90
17154;DHT22;8692;52.164;7.558;2022-12-16T10:18:56;-2.50;99.90
17154;DHT22;8692;52.164;7.558;2022-12-16T10:21:48;-2.40;99.90
17154;DHT22;8692;52.164;7.558;2022-12-16T10:24:45;-2.40;99.90
17154;DHT22;8692;52.164;7.558;2022-12-16T10:27:40;-2.30;99.90
17154;DHT22;8692;52.164;7.558;2022-12-16T10:30:28;-2.30;99.90
17154;DHT22;8692;52.164;7.558;2022-12-16T10:33:15;-2.30;99.90
17154;DHT22;8692;52.164;7.558;2022-12-16T10:36:03;-2.30;99.90
17154;DHT22;8692;52.164;7.558;2022-12-16T10:38:51;-2.20;99.90
17154;DHT22;8692;52.164;7.558;2022-12-16T10:41:40;-2.20;99.90
17154;DHT22;8692;52.164;7.558;2022-12-16T10:44:33;-2.20;99.90
17154;DHT22;8692;52.164;7.558;2022-12-16T10:47:21;-2.10;99.90
17154;DHT22;8692;52.164;7.558;2022-12-16T10:50:11;-2.10;99.90
17154;DHT22;8692;52.164;7.558;2022-12-16T10:52:59;-2.10;99.90
17154;DHT22;8692;52.164;7.558;2022-12-16T10:55:56;-2.00;99.90
17154;DHT22;8692;52.164;7.558;2022-12-16T10:58:52;-2.00;99.90
17154;DHT22;8692;52.164;7.558;2022-12-16T11:01:40;-1.90;99.90
17154;DHT22;8692;52.164;7.558;2022-12-16T11:04:31;-1.80;99.90
17154;DHT22;8692;52.164;7.558;2022-12-16T11:07:30;-1.80;99.90
17154;DHT22;8692;52.164;7.558;2022-12-16T11:10:31;-1.70;99.90
17154;DHT22;8692;52.164;7.558;2022-12-16T11:13:24;-1.70;99.90
17154;DHT22;8692;52.164;7.558;2022-12-16T11:16:15;-1.60;99.90
17154;DHT22;8692;52.164;7.558;2022-12-16T11:19:18;-1.50;99.90
17154;DHT22;8692;52.164;7.558;2022-12-16T11:22:05;-1.40;99.90
17154;DHT22;8692;52.164;7.558;2022-12-16T11:25:04;-1.30;99.90
17154;DHT22;8692;52.164;7.558;2022-12-16T11:28:02;-1.20;99.90
17154;DHT22;8692;52.164;7.558;2022-12-16T11:30:52;-1.10;99.90
17154;DHT22;8692;52.164;7.558;2022-12-16T11:33:41;-1.00;99.90
17154;DHT22;8692;52.164;7.558;2022-12-16T11:36:33;-0.90;99.90
17154;DHT22;8692;52.164;7.558;2022-12-16T11:39:22;-0.90;99.90
17154;DHT22;8692;52.164;7.558;2022-12-16T11:42:11;-0.80;99.90
17154;DHT22;8692;52.164;7.558;2022-12-16T11:45:03;-0.70;99.90
17154;DHT22;8692;52.164;7.558;2022-12-16T11:48:04;-0.60;99.90
17154;DHT22;8692;52.164;7.558;2022-12-16T11:50:55;-0.50;99.90
17154;DHT22;8692;52.164;7.558;2022-12-16T11:53:46;-0.40;99.90
17154;DHT22;8692;52.164;7.558;2022-12-16T11:56:37;-0.30;99.90
17154;DHT22;8692;52.164;7.558;2022-12-16T11:59:29;-0.20;99.90
17154;DHT22;8692;52.164;7.558;2022-12-16T12:02:24;-0.10;99.90
17154;DHT22;8692;52.164;7.558;2022-12-16T12:05:13;-0.10;99.90
17154;DHT22;8692;52.164;7.558;2022-12-16T12:08:03;0.00;99.90
17154;DHT22;8692;52.164;7.558;2022-12-16T12:11:03;0.10;99.90
17154;DHT22;8692;52.164;7.558;2022-12-16T12:13:58;0.20;99.90
17154;DHT22;8692;52.164;7.558;2022-12-16T12:17:02;0.30;99.90
17154;DHT22;8692;52.164;7.558;2022-12-16T12:20:03;0.40;99.90
17154;DHT22;8692;52.164;7.558;2022-12-16T12:22:56;0.50;99.90
17154;DHT22;8692;52.164;7.558;2022-12-16T12:25:53;0.60;99.90
17154;DHT22;8692;52.164;7.558;2022-12-16T12:28:47;0.70;99.90
17154;DHT22;8692;52.164;7.558;2022-12-16T12:31:41;0.70;99.90
17154;DHT22;8692;52.164;7.558;2022-12-16T12:34:34;0.80;99.90
17154;DHT22;8692;52.164;7.558;2022-12-16T12:37:27;0.80;99.90
17154;DHT22;8692;52.164;7.558;2022-12-16T12:40:26;0.90;99.90
17154;DHT22;8692;52.164;7.558;2022-12-16T12:43:28;0.90;99.90
17154;DHT22;8692;52.164;7.558;2022-12-16T12:46:25;0.90;99.90
17154;DHT22;8692;52.164;7.558;2022-12-16T12:49:19;1.00;99.90
17154;DHT22;8692;52.164;7.558;2022-12-16T12:52:14;1.10;99.90
17154;DHT22;8692;52.164;7.558;2022-12-16T12:55:08;1.10;99.90
17154;DHT22;8692;52.164;7.558;2022-12-16T12:57:56;1.10;99.90
17154;DHT22;8692;52.164;7.558;2022-12-16T13:00:49;1.10;99.90
17154;DHT22;8692;52.164;7.558;2022-12-16T13:03:41;1.10;99.90
17154;DHT22;8692;52.164;7.558;2022-12-16T13:06:28;1.10;99.90
17154;DHT22;8692;52.164;7.558;2022-12-16T13:09:29;1.20;99.90
17154;DHT22;8692;52.164;7.558;2022-12-16T13:12:26;1.20;99.90
17154;DHT22;8692;52.164;7.558;2022-12-16T13:15:33;1.20;99.90
17154;DHT22;8692;52.164;7.558;2022-12-16T13:18:21;1.20;99.90
17154;DHT22;8692;52.164;7.558;2022-12-16T13:21:42;1.20;99.90
17154;DHT22;8692;52.164;7.558;2022-12-16T13:24:39;1.20;99.90
17154;DHT22;8692;52.164;7.558;2022-12-16T13:27:26;1.20;99.90
17154;DHT22;8692;52.164;7.558;2022-12-16T13:30:23;1.10;99.90
17154;DHT22;8692;52.164;7.558;2022-12-16T13:33:23;1.10;99.90
17154;DHT22;8692;52.164;7.558;2022-12-16T13:36:10;1.10;99.90
17154;DHT22;8692;52.164;7.558;2022-12-16T13:39:04;1.10;99.90
17154;DHT22;8692;52.164;7.558;2022-12-16T13:41:59;1.10;99.90
17154;DHT22;8692;52.164;7.558;2022-12-16T13:44:56;1.00;99.90
17154;DHT22;8692;52.164;7.558;2022-12-16T13:48:15;0.90;99.90
17154;DHT22;8692;52.164;7.558;2022-12-16T13:54:34;0.80;99.90
17154;DHT22;8692;52.164;7.558;2022-12-16T13:57:22;0.80;99.90
17154;DHT22;8692;52.164;7.558;2022-12-16T14:00:16;0.70;99.90
17154;DHT22;8692;52.164;7.558;2022-12-16T14:03:07;0.70;99.90
17154;DHT22;8692;52.164;7.558;2022-12-16T14:05:54;0.70;99.90
17154;DHT22;8692;52.164;7.558;2022-12-16T14:08:40;0.60;99.90
17154;DHT22;8692;52.164;7.558;2022-12-16T14:11:39;0.60;99.90
17154;DHT22;8692;52.164;7.558;2022-12-16T14:14:32;0.60;99.90
17154;DHT22;8692;52.164;7.558;2022-12-16T14:17:23;0.60;99.90
17154;DHT22;8692;52.164;7.558;2022-12-16T14:20:15;0.60;99.90
17154;DHT22;8692;52.164;7.558;2022-12-16T14:23:13;0.50;99.90
17154;DHT22;8692;52.164;7.558;2022-12-16T14:26:24;0.50;99.90
17154;DHT22;8692;52.164;7.558;2022-12-16T14:29:23;0.50;99.90
17154;DHT22;8692;52.164;7.558;2022-12-16T14:32:20;0.40;99.90
17154;DHT22;8692;52.164;7.558;2022-12-16T14:35:11;0.40;99.90
17154;DHT22;8692;52.164;7.558;2022-12-16T14:37:57;0.40;99.90
17154;DHT22;8692;52.164;7.558;2022-12-16T14:40:50;0.40;99.90
17154;DHT22;8692;52.164;7.558;2022-12-16T14:43:35;0.30;99.90
17154;DHT22;8692;52.164;7.558;2022-12-16T14:46:28;0.30;99.90
17154;DHT22;8692;52.164;7.558;2022-12-16T14:49:20;0.30;99.90
17154;DHT22;8692;52.164;7.558;2022-12-16T14:52:15;0.20;99.90
17154;DHT22;8692;52.164;7.558;2022-12-16T14:55:13;0.20;99.90
17154;DHT22;8692;52.164;7.558;2022-12-16T14:58:05;0.10;99.90
17154;DHT22;8692;52.164;7.558;2022-12-16T15:00:51;0.10;99.90
17154;DHT22;8692;52.164;7.558;2022-12-16T15:03:45;0.00;99.90
17154;DHT22;8692;52.164;7.558;2022-12-16T15:06:50;0.00;99.90
17154;DHT22;8692;52.164;7.558;2022-12-16T15:09:40;-0.10;99.90
17154;DHT22;8692;52.164;7.558;2022-12-16T15:12:31;-0.20;99.90
17154;DHT22;8692;52.164;7.558;2022-12-16T15:15:22;-0.20;99.90
17154;DHT22;8692;52.164;7.558;2022-12-16T15:18:15;-0.20;99.90
17154;DHT22;8692;52.164;7.558;2022-12-16T15:21:06;-0.30;99.90
17154;DHT22;8692;52.164;7.558;2022-12-16T15:23:52;-0.30;99.90
17154;DHT22;8692;52.164;7.558;2022-12-16T15:26:38;-0.40;99.90
17154;DHT22;8692;52.164;7.558;2022-12-16T15:29:31;-0.50;99.90
17154;DHT22;8692;52.164;7.558;2022-12-16T15:32:31;-0.50;99.90
17154;DHT22;8692;52.164;7.558;2022-12-16T15:35:24;-0.60;99.90
17154;DHT22;8692;52.164;7.558;2022-12-16T15:38:20;-0.60;99.90
17154;DHT22;8692;52.164;7.558;2022-12-16T15:41:19;-0.70;99.90
17154;DHT22;8692;52.164;7.558;2022-12-16T15:44:14;-0.70;99.90
17154;DHT22;8692;52.164;7.558;2022-12-16T15:47:00;-0.70;99.90
17154;DHT22;8692;52.164;7.558;2022-12-16T15:49:47;-0.80;99.90
17154;DHT22;8692;52.164;7.558;2022-12-16T15:52:36;-0.80;99.90
17154;DHT22;8692;52.164;7.558;2022-12-16T15:55:30;-0.90;99.90
17154;DHT22;8692;52.164;7.558;2022-12-16T15:58:21;-0.90;99.90
17154;DHT22;8692;52.164;7.558;2022-12-16T16:01:10;-1.00;99.90
17154;DHT22;8692;52.164;7.558;2022-12-16T16:03:58;-1.00;99.90
17154;DHT22;8692;52.164;7.558;2022-12-16T16:06:49;-1.10;99.90
17154;DHT22;8692;52.164;7.558;2022-12-16T16:09:38;-1.10;99.90
17154;DHT22;8692;52.164;7.558;2022-12-16T16:12:25;-1.20;99.90
17154;DHT22;8692;52.164;7.558;2022-12-16T16:15:13;-1.20;99.90
17154;DHT22;8692;52.164;7.558;2022-12-16T16:18:01;-1.20;99.90
17154;DHT22;8692;52.164;7.558;2022-12-16T16:20:50;-1.30;99.90
17154;DHT22;8692;52.164;7.558;2022-12-16T16:23:38;-1.30;99.90
17154;DHT22;8692;52.164;7.558;2022-12-16T16:26:26;-1.40;99.90
17154;DHT22;8692;52.164;7.558;2022-12-16T16:29:13;-1.40;99.90
17154;DHT22;8692;52.164;7.558;2022-12-16T16:31:59;-1.50;99.90
17154;DHT22;8692;52.164;7.558;2022-12-16T16:34:46;-1.50;99.90
17154;DHT22;8692;52.164;7.558;2022-12-16T16:37:31;-1.60;99.90
17154;DHT22;8692;52.164;7.558;2022-12-16T16:40:22;-1.60;99.90
17154;DHT22;8692;52.164;7.558;2022-12-16T16:43:11;-1.60;99.90
17154;DHT22;8692;52.164;7.558;2022-12-16T16:46:01;-1.70;99.90
17154;DHT22;8692;52.164;7.558;2022-12-16T16:48:52;-1.70;99.90
17154;DHT22;8692;52.164;7.558;2022-12-16T16:51:38;-1.80;99.90
17154;DHT22;8692;52.164;7.558;2022-12-16T16:54:23;-1.80;99.90
17154;DHT22;8692;52.164;7.558;2022-12-16T16:57:19;-1.80;99.90
17154;DHT22;8692;52.164;7.558;2022-12-16T17:00:06;-1.90;99.90
17154;DHT22;8692;52.164;7.558;2022-12-16T17:02:55;-1.90;99.90
17154;DHT22;8692;52.164;7.558;2022-12-16T17:05:44;-2.00;99.90
17154;DHT22;8692;52.164;7.558;2022-12-16T17:08:30;-2.00;99.90
17154;DHT22;8692;52.164;7.558;2022-12-16T17:11:17;-2.00;99.90
17154;DHT22;8692;52.164;7.558;2022-12-16T17:14:10;-2.10;99.90
17154;DHT22;8692;52.164;7.558;2022-12-16T17:16:58;-2.10;99.90
17154;DHT22;8692;52.164;7.558;2022-12-16T17:19:46;-2.10;99.90
17154;DHT22;8692;52.164;7.558;2022-12-16T17:22:32;-2.20;99.90
17154;DHT22;8692;52.164;7.558;2022-12-16T17:25:18;-2.20;99.90
17154;DHT22;8692;52.164;7.558;2022-12-16T17:28:04;-2.30;99.90
17154;DHT22;8692;52.164;7.558;2022-12-16T17:30:52;-2.30;99.90
17154;DHT22;8692;52.164;7.558;2022-12-16T17:33:37;-2.30;99.90
17154;DHT22;8692;52.164;7.558;2022-12-16T17:36:27;-2.30;99.90
17154;DHT22;8692;52.164;7.558;2022-12-16T17:39:15;-2.40;99.90
17154;DHT22;8692;52.164;7.558;2022-12-16T17:42:00;-2.40;99.90
17154;DHT22;8692;52.164;7.558;2022-12-16T17:44:46;-2.40;99.90
17154;DHT22;8692;52.164;7.558;2022-12-16T17:47:33;-2.50;99.90